sensor_id;sensor_type;location;lat;lon;timestamp;temperature;humidity
7034;DHT22;3558;53.176;10.412;2023-12-04T03:46:13;5.80;74.60
7034;DHT22;3558;53.176;10.412;2023-12-04T03:48:39;5.80;74.60
7034;DHT22;3558;53.176;10.412;2023-12-04T03:51:05;5.80;74.60
7034;DHT22;3558;53.176;10.412;2023-12-04T03:53:30;5.80;74.50
7034;DHT22;3558;53.176;10.412;2023-12-04T03:55:58;5.80;74.60
7034;DHT22;3558;53.176;10.412;2023-12-04T03:58:24;5.70;74.50
7034;DHT22;3558;53.176;10.412;2023-12-04T04:00:49;5.80;74.60
7034;DHT22;3558;53.176;10.412;2023-12-04T04:03:15;5.80;74.50
7034;DHT22;3558;53.176;10.412;2023-12-04T04:05:40;5.80;74.50
7034;DHT22;3558;53.176;10.412;2023-12-04T04:08:06;5.80;74.60
7034;DHT22;3558;53.176;10.412;2023-12-04T04:10:33;5.70;74.30
7034;DHT22;3558;53.176;10.412;2023-12-04T04:12:59;5.80;74.40
7034;DHT22;3558;53.176;10.412;2023-12-04T04:15:25;5.70;74.40
7034;DHT22;3558;53.176;10.412;2023-12-04T04:17:51;5.70;74.40
7034;DHT22;3558;53.176;10.412;2023-12-04T04:20:17;5.70;74.30
7034;DHT22;3558;53.176;10.412;2023-12-04T04:22:42;5.70;74.40
7034;DHT22;3558;53.176;10.412;2023-12-04T04:25:08;5.70;74.40
7034;DHT22;3558;53.176;10.412;2023-12-04T04:27:34;5.70;74.40
7034;DHT22;3558;53.176;10.412;2023-12-04T04:30:00;5.70;74.40
7034;DHT22;3558;53.176;10.412;2023-12-04T04:32:25;5.70;74.40
7034;DHT22;3558;53.176;10.412;2023-12-04T04:34:51;5.70;74.30
7034;DHT22;3558;53.176;10.412;2023-12-04T04:37:16;5.70;74.30
7034;DHT22;3558;53.176;10.412;2023-12-04T04:39:42;5.70;74.20
7034;DHT22;3558;53.176;10.412;2023-12-04T04:42:07;5.70;74.20
7034;DHT22;3558;53.176;10.412;2023-12-04T04:44:33;5.70;74.20
7034;DHT22;3558;53.176;10.412;2023-12-04T04:46:59;5.70;74.10
7034;DHT22;3558;53.176;10.412;2023-12-04T04:49:24;5.70;74.20
7034;DHT22;3558;53.176;10.412;2023-12-04T04:51:50;5.70;74.30
7034;DHT22;3558;53.176;10.412;2023-12-04T04:54:15;5.70;74.10
7034;DHT22;3558;53.176;10.412;2023-12-04T04:56:41;5.70;74.10
7034;DHT22;3558;53.176;10.412;2023-12-04T04:59:06;5.70;74.10
7034;DHT22;3558;53.176;10.412;2023-12-04T05:01:32;5.60;74.10
7034;DHT22;3558;53.176;10.412;2023-12-04T05:03:57;5.60;74.20
7034;DHT22;3558;53.176;10.412;2023-12-04T05:06:23;5.60;74.20
7034;DHT22;3558;53.176;10.412;2023-12-04T05:08:48;5.60;74.10
7034;DHT22;3558;53.176;10.412;2023-12-04T05:11:17;5.60;74.00
7034;DHT22;3558;53.176;10.412;2023-12-04T05:13:44;5.60;74.00
7034;DHT22;3558;53.176;10.412;2023-12-04T05:16:09;5.60;74.00
7034;DHT22;3558;53.176;10.412;2023-12-04T05:18:35;5.60;74.00
7034;DHT22;3558;53.176;10.412;2023-12-04T05:21:01;5.60;74.00
7034;DHT22;3558;53.176;10.412;2023-12-04T05:23:26;5.60;74.10
7034;DHT22;3558;53.176;10.412;2023-12-04T05:25:52;5.60;74.20
7034;DHT22;3558;53.176;10.412;2023-12-04T05:28:17;5.60;74.10
7034;DHT22;3558;53.176;10.412;2023-12-04T05:30:43;5.60;74.70
7034;DHT22;3558;53.176;10.412;2023-12-04T05:33:08;5.60;74.10
7034;DHT22;3558;53.176;10.412;2023-12-04T05:35:34;5.60;74.20
7034;DHT22;3558;53.176;10.412;2023-12-04T05:38:00;5.60;74.20
7034;DHT22;3558;53.176;10.412;2023-12-04T05:40:26;5.60;74.10
7034;DHT22;3558;53.176;10.412;2023-12-04T05:42:51;5.60;74.20
7034;DHT22;3558;53.176;10.412;2023-12-04T05:45:16;5.60;74.20
7034;DHT22;3558;53.176;10.412;2023-12-04T05:47:43;5.60;74.30
7034;DHT22;3558;53.176;10.412;2023-12-04T05:50:08;5.60;74.20
7034;DHT22;3558;53.176;10.412;2023-12-04T05:52:34;5.60;74.20
7034;DHT22;3558;53.176;10.412;2023-12-04T05:54:59;5.60;74.20
7034;DHT22;3558;53.176;10.412;2023-12-04T05:57:25;5.60;74.30
7034;DHT22;3558;53.176;10.412;2023-12-04T05:59:50;5.60;74.30
7034;DHT22;3558;53.176;10.412;2023-12-04T06:02:16;5.60;74.30
7034;DHT22;3558;53.176;10.412;2023-12-04T06:04:41;5.60;74.30
7034;DHT22;3558;53.176;10.412;2023-12-04T06:07:07;5.60;74.30
7034;DHT22;3558;53.176;10.412;2023-12-04T06:09:33;5.60;74.30
7034;DHT22;3558;53.176;10.412;2023-12-04T06:11:58;5.60;74.30
7034;DHT22;3558;53.176;10.412;2023-12-04T06:14:29;5.60;74.30
7034;DHT22;3558;53.176;10.412;2023-12-04T06:16:55;5.60;74.40
7034;DHT22;3558;53.176;10.412;2023-12-04T06:19:21;5.60;74.30
7034;DHT22;3558;53.176;10.412;2023-12-04T06:21:46;5.60;75.00
7034;DHT22;3558;53.176;10.412;2023-12-04T06:24:12;5.60;75.00
7034;DHT22;3558;53.176;10.412;2023-12-04T06:26:41;5.60;74.50
7034;DHT22;3558;53.176;10.412;2023-12-04T06:29:07;5.60;74.50
7034;DHT22;3558;53.176;10.412;2023-12-04T06:31:33;5.60;74.50
7034;DHT22;3558;53.176;10.412;2023-12-04T06:33:59;5.60;74.50
7034;DHT22;3558;53.176;10.412;2023-12-04T06:36:24;5.60;74.50
7034;DHT22;3558;53.176;10.412;2023-12-04T06:38:52;5.60;74.50
7034;DHT22;3558;53.176;10.412;2023-12-04T06:41:18;5.60;74.50
7034;DHT22;3558;53.176;10.412;2023-12-04T06:43:44;5.60;74.50
7034;DHT22;3558;53.176;10.412;2023-12-04T06:46:11;5.60;74.40
7034;DHT22;3558;53.176;10.412;2023-12-04T06:48:39;5.60;74.50
7034;DHT22;3558;53.176;10.412;2023-12-04T06:51:05;5.60;74.60
7034;DHT22;3558;53.176;10.412;2023-12-04T06:53:30;5.60;74.50
7034;DHT22;3558;53.176;10.412;2023-12-04T06:55:56;5.60;74.60
7034;DHT22;3558;53.176;10.412;2023-12-04T06:58:21;5.60;74.70
7034;DHT22;3558;53.176;10.412;2023-12-04T07:00:47;5.60;74.70
7034;DHT22;3558;53.176;10.412;2023-12-04T07:03:13;5.60;74.80
7034;DHT22;3558;53.176;10.412;2023-12-04T07:05:39;5.60;74.90
7034;DHT22;3558;53.176;10.412;2023-12-04T07:08:04;5.60;74.80
7034;DHT22;3558;53.176;10.412;2023-12-04T07:10:30;5.60;74.80
7034;DHT22;3558;53.176;10.412;2023-12-04T07:12:56;5.60;74.80
7034;DHT22;3558;53.176;10.412;2023-12-04T07:15:22;5.60;74.80
7034;DHT22;3558;53.176;10.412;2023-12-04T07:17:47;5.60;74.80
7034;DHT22;3558;53.176;10.412;2023-12-04T07:20:12;5.60;74.70
7034;DHT22;3558;53.176;10.412;2023-12-04T07:22:38;5.70;74.70
7034;DHT22;3558;53.176;10.412;2023-12-04T07:25:04;5.70;74.70
7034;DHT22;3558;53.176;10.412;2023-12-04T07:27:32;5.70;74.80
7034;DHT22;3558;53.176;10.412;2023-12-04T07:29:57;5.70;74.80
7034;DHT22;3558;53.176;10.412;2023-12-04T07:32:23;5.70;74.90
7034;DHT22;3558;53.176;10.412;2023-12-04T07:34:48;5.70;74.80
7034;DHT22;3558;53.176;10.412;2023-12-04T07:37:14;5.70;74.80
7034;DHT22;3558;53.176;10.412;2023-12-04T07:39:39;5.70;74.80
7034;DHT22;3558;53.176;10.412;2023-12-04T07:42:05;5.70;74.80
7034;DHT22;3558;53.176;10.412;2023-12-04T07:44:30;5.70;74.80
7034;DHT22;3558;53.176;10.412;2023-12-04T07:46:56;5.70;74.80
7034;DHT22;3558;53.176;10.412;2023-12-04T07:49:21;5.70;74.80
7034;DHT22;3558;53.176;10.412;2023-12-04T07:51:46;5.70;74.80
7034;DHT22;3558;53.176;10.412;2023-12-04T07:54:12;5.70;74.90
7034;DHT22;3558;53.176;10.412;2023-12-04T07:56:37;5.70;74.90
7034;DHT22;3558;53.176;10.412;2023-12-04T07:59:03;5.70;74.90
7034;DHT22;3558;53.176;10.412;2023-12-04T08:01:28;5.70;75.00
7034;DHT22;3558;53.176;10.412;2023-12-04T08:03:54;5.70;75.00
7034;DHT22;3558;53.176;10.412;2023-12-04T08:06:19;5.70;75.00
7034;DHT22;3558;53.176;10.412;2023-12-04T08:08:45;5.70;75.10
7034;DHT22;3558;53.176;10.412;2023-12-04T08:11:11;5.70;75.10
7034;DHT22;3558;53.176;10.412;2023-12-04T08:13:38;5.70;75.10
7034;DHT22;3558;53.176;10.412;2023-12-04T08:16:04;5.70;75.10
7034;DHT22;3558;53.176;10.412;2023-12-04T08:18:31;5.70;75.70
7034;DHT22;3558;53.176;10.412;2023-12-04T08:21:00;5.70;75.20
7034;DHT22;3558;53.176;10.412;2023-12-04T08:23:26;5.70;75.10
7034;DHT22;3558;53.176;10.412;2023-12-04T08:25:51;5.70;75.20
7034;DHT22;3558;53.176;10.412;2023-12-04T08:28:17;5.70;75.20
7034;DHT22;3558;53.176;10.412;2023-12-04T08:30:42;5.70;75.20
7034;DHT22;3558;53.176;10.412;2023-12-04T08:33:07;5.70;75.10
7034;DHT22;3558;53.176;10.412;2023-12-04T08:35:33;5.70;75.20
7034;DHT22;3558;53.176;10.412;2023-12-04T08:37:58;5.80;75.30
7034;DHT22;3558;53.176;10.412;2023-12-04T08:40:24;5.70;75.20
7034;DHT22;3558;53.176;10.412;2023-12-04T08:42:49;5.80;75.30
7034;DHT22;3558;53.176;10.412;2023-12-04T08:45:15;5.70;75.20
7034;DHT22;3558;53.176;10.412;2023-12-04T08:47:40;5.70;75.40
7034;DHT22;3558;53.176;10.412;2023-12-04T08:50:06;5.70;75.40
7034;DHT22;3558;53.176;10.412;2023-12-04T08:52:32;5.80;75.40
7034;DHT22;3558;53.176;10.412;2023-12-04T08:54:58;5.80;75.30
7034;DHT22;3558;53.176;10.412;2023-12-04T08:57:23;5.80;75.40
7034;DHT22;3558;53.176;10.412;2023-12-04T08:59:49;5.80;75.40
7034;DHT22;3558;53.176;10.412;2023-12-04T09:02:14;5.80;75.40
7034;DHT22;3558;53.176;10.412;2023-12-04T09:04:39;5.80;75.50
7034;DHT22;3558;53.176;10.412;2023-12-04T09:07:05;5.80;75.50
7034;DHT22;3558;53.176;10.412;2023-12-04T09:09:31;5.80;75.70
7034;DHT22;3558;53.176;10.412;2023-12-04T09:11:57;5.70;75.60
7034;DHT22;3558;53.176;10.412;2023-12-04T09:14:23;5.70;75.60
7034;DHT22;3558;53.176;10.412;2023-12-04T09:16:48;5.80;75.70
7034;DHT22;3558;53.176;10.412;2023-12-04T09:19:14;5.80;75.70
7034;DHT22;3558;53.176;10.412;2023-12-04T09:21:39;5.70;75.70
7034;DHT22;3558;53.176;10.412;2023-12-04T09:24:05;5.80;75.80
7034;DHT22;3558;53.176;10.412;2023-12-04T09:26:30;5.80;75.80
7034;DHT22;3558;53.176;10.412;2023-12-04T09:28:56;5.80;75.80
7034;DHT22;3558;53.176;10.412;2023-12-04T09:31:22;5.80;75.80
7034;DHT22;3558;53.176;10.412;2023-12-04T09:33:48;5.80;75.90
7034;DHT22;3558;53.176;10.412;2023-12-04T09:36:13;5.80;76.20
7034;DHT22;3558;53.176;10.412;2023-12-04T09:38:39;5.80;76.10
7034;DHT22;3558;53.176;10.412;2023-12-04T09:41:05;5.80;76.10
7034;DHT22;3558;53.176;10.412;2023-12-04T09:43:32;5.80;76.00
7034;DHT22;3558;53.176;10.412;2023-12-04T09:45:59;5.80;76.10
7034;DHT22;3558;53.176;10.412;2023-12-04T09:48:25;5.80;76.10
7034;DHT22;3558;53.176;10.412;2023-12-04T09:50:52;5.90;76.20
7034;DHT22;3558;53.176;10.412;2023-12-04T09:53:17;5.80;76.10
7034;DHT22;3558;53.176;10.412;2023-12-04T09:55:44;5.80;76.10
7034;DHT22;3558;53.176;10.412;2023-12-04T09:58:14;5.80;76.10
7034;DHT22;3558;53.176;10.412;2023-12-04T10:00:41;5.80;76.10
7034;DHT22;3558;53.176;10.412;2023-12-04T10:03:08;5.90;76.20
7034;DHT22;3558;53.176;10.412;2023-12-04T10:05:33;5.80;76.30
7034;DHT22;3558;53.176;10.412;2023-12-04T10:07:59;5.90;76.40
7034;DHT22;3558;53.176;10.412;2023-12-04T10:10:25;5.80;76.30
7034;DHT22;3558;53.176;10.412;2023-12-04T10:12:51;5.90;76.40
7034;DHT22;3558;53.176;10.412;2023-12-04T10:15:16;5.90;76.30
7034;DHT22;3558;53.176;10.412;2023-12-04T10:17:43;5.90;76.40
7034;DHT22;3558;53.176;10.412;2023-12-04T10:20:13;5.90;76.40
7034;DHT22;3558;53.176;10.412;2023-12-04T10:23:01;5.90;76.40
7034;DHT22;3558;53.176;10.412;2023-12-04T10:25:30;5.90;76.50
7034;DHT22;3558;53.176;10.412;2023-12-04T10:28:08;5.90;76.50
7034;DHT22;3558;53.176;10.412;2023-12-04T10:30:34;5.90;76.40
7034;DHT22;3558;53.176;10.412;2023-12-04T10:33:04;5.90;76.40
7034;DHT22;3558;53.176;10.412;2023-12-04T10:35:33;5.90;76.40
7034;DHT22;3558;53.176;10.412;2023-12-04T10:38:02;5.90;76.40
7034;DHT22;3558;53.176;10.412;2023-12-04T10:40:30;5.90;76.40
7034;DHT22;3558;53.176;10.412;2023-12-04T10:43:22;6.00;77.10
7034;DHT22;3558;53.176;10.412;2023-12-04T10:45:50;6.00;76.50
7034;DHT22;3558;53.176;10.412;2023-12-04T10:48:17;6.00;76.60
7034;DHT22;3558;53.176;10.412;2023-12-04T10:50:47;6.00;76.70
7034;DHT22;3558;53.176;10.412;2023-12-04T10:53:15;6.00;76.70
7034;DHT22;3558;53.176;10.412;2023-12-04T10:55:41;6.00;76.70
7034;DHT22;3558;53.176;10.412;2023-12-04T10:58:09;6.00;76.80
7034;DHT22;3558;53.176;10.412;2023-12-04T11:00:47;6.00;76.90
7034;DHT22;3558;53.176;10.412;2023-12-04T11:03:19;6.00;76.80
7034;DHT22;3558;53.176;10.412;2023-12-04T11:05:49;6.00;76.80
7034;DHT22;3558;53.176;10.412;2023-12-04T11:08:18;6.10;76.80
7034;DHT22;3558;53.176;10.412;2023-12-04T11:10:56;6.10;76.90
7034;DHT22;3558;53.176;10.412;2023-12-04T11:13:26;6.10;77.40
7034;DHT22;3558;53.176;10.412;2023-12-04T11:15:56;6.10;76.90
7034;DHT22;3558;53.176;10.412;2023-12-04T11:18:24;6.10;76.90
7034;DHT22;3558;53.176;10.412;2023-12-04T11:20:55;6.10;76.90
7034;DHT22;3558;53.176;10.412;2023-12-04T11:23:22;6.10;76.90
7034;DHT22;3558;53.176;10.412;2023-12-04T11:25:48;6.10;76.90
7034;DHT22;3558;53.176;10.412;2023-12-04T11:28:15;6.20;76.90
7034;DHT22;3558;53.176;10.412;2023-12-04T11:30:42;6.10;76.90
7034;DHT22;3558;53.176;10.412;2023-12-04T11:33:09;6.10;77.00
7034;DHT22;3558;53.176;10.412;2023-12-04T11:35:36;6.20;77.00
7034;DHT22;3558;53.176;10.412;2023-12-04T11:38:05;6.20;77.00
7034;DHT22;3558;53.176;10.412;2023-12-04T11:40:32;6.20;77.00
7034;DHT22;3558;53.176;10.412;2023-12-04T11:42:57;6.20;77.10
7034;DHT22;3558;53.176;10.412;2023-12-04T11:45:23;6.20;77.20
7034;DHT22;3558;53.176;10.412;2023-12-04T11:50:16;6.20;77.20
7034;DHT22;3558;53.176;10.412;2023-12-04T11:52:41;6.20;77.20
7034;DHT22;3558;53.176;10.412;2023-12-04T11:55:07;6.30;77.20
7034;DHT22;3558;53.176;10.412;2023-12-04T11:57:40;6.30;77.30
7034;DHT22;3558;53.176;10.412;2023-12-04T12:00:26;6.30;77.40
7034;DHT22;3558;53.176;10.412;2023-12-04T12:03:02;6.30;77.40
7034;DHT22;3558;53.176;10.412;2023-12-04T12:05:28;6.30;77.30
7034;DHT22;3558;53.176;10.412;2023-12-04T12:07:55;6.30;77.30
7034;DHT22;3558;53.176;10.412;2023-12-04T12:10:21;6.30;77.30
7034;DHT22;3558;53.176;10.412;2023-12-04T12:12:47;6.30;77.30
7034;DHT22;3558;53.176;10.412;2023-12-04T12:15:13;6.30;77.40
7034;DHT22;3558;53.176;10.412;2023-12-04T12:17:41;6.40;77.50
7034;DHT22;3558;53.176;10.412;2023-12-04T12:20:08;6.40;77.60
7034;DHT22;3558;53.176;10.412;2023-12-04T12:22:35;6.40;77.50
7034;DHT22;3558;53.176;10.412;2023-12-04T12:25:04;6.40;77.60
7034;DHT22;3558;53.176;10.412;2023-12-04T12:27:30;6.40;77.60
7034;DHT22;3558;53.176;10.412;2023-12-04T12:29:55;6.40;77.60
7034;DHT22;3558;53.176;10.412;2023-12-04T12:32:21;6.40;77.70
7034;DHT22;3558;53.176;10.412;2023-12-04T12:34:46;6.40;77.80
7034;DHT22;3558;53.176;10.412;2023-12-04T12:37:12;6.40;77.60
7034;DHT22;3558;53.176;10.412;2023-12-04T12:39:37;6.50;77.70
7034;DHT22;3558;53.176;10.412;2023-12-04T12:42:04;6.50;77.60
7034;DHT22;3558;53.176;10.412;2023-12-04T12:44:37;6.50;77.60
7034;DHT22;3558;53.176;10.412;2023-12-04T12:47:05;6.50;77.70
7034;DHT22;3558;53.176;10.412;2023-12-04T12:49:31;6.50;77.60
7034;DHT22;3558;53.176;10.412;2023-12-04T12:51:56;6.50;77.70
7034;DHT22;3558;53.176;10.412;2023-12-04T12:54:25;6.50;78.30
7034;DHT22;3558;53.176;10.412;2023-12-04T12:56:51;6.50;77.70
7034;DHT22;3558;53.176;10.412;2023-12-04T12:59:16;6.50;77.80
7034;DHT22;3558;53.176;10.412;2023-12-04T13:01:43;6.50;77.80
7034;DHT22;3558;53.176;10.412;2023-12-04T13:04:08;6.50;77.70
7034;DHT22;3558;53.176;10.412;2023-12-04T13:06:38;6.50;77.80
7034;DHT22;3558;53.176;10.412;2023-12-04T13:09:04;6.50;77.80
7034;DHT22;3558;53.176;10.412;2023-12-04T13:11:32;6.50;77.80
7034;DHT22;3558;53.176;10.412;2023-12-04T13:13:57;6.50;77.90
7034;DHT22;3558;53.176;10.412;2023-12-04T13:16:23;6.50;77.80
7034;DHT22;3558;53.176;10.412;2023-12-04T13:18:48;6.60;78.00
7034;DHT22;3558;53.176;10.412;2023-12-04T13:21:14;6.60;78.00
7034;DHT22;3558;53.176;10.412;2023-12-04T13:23:39;6.60;78.00
7034;DHT22;3558;53.176;10.412;2023-12-04T13:26:05;6.60;78.00
7034;DHT22;3558;53.176;10.412;2023-12-04T13:28:31;6.60;78.10
7034;DHT22;3558;53.176;10.412;2023-12-04T13:30:56;6.60;78.10
7034;DHT22;3558;53.176;10.412;2023-12-04T13:33:22;6.60;78.10
7034;DHT22;3558;53.176;10.412;2023-12-04T13:35:47;6.60;78.00
7034;DHT22;3558;53.176;10.412;2023-12-04T13:38:13;6.60;78.20
7034;DHT22;3558;53.176;10.412;2023-12-04T13:40:39;6.60;78.20
7034;DHT22;3558;53.176;10.412;2023-12-04T13:43:05;6.60;78.10
7034;DHT22;3558;53.176;10.412;2023-12-04T13:45:49;6.60;78.10
7034;DHT22;3558;53.176;10.412;2023-12-04T13:48:16;6.60;78.10
7034;DHT22;3558;53.176;10.412;2023-12-04T13:50:43;6.70;78.10
7034;DHT22;3558;53.176;10.412;2023-12-04T13:53:09;6.60;78.00
7034;DHT22;3558;53.176;10.412;2023-12-04T13:55:34;6.60;78.00
7034;DHT22;3558;53.176;10.412;2023-12-04T13:58:35;6.60;78.00
7034;DHT22;3558;53.176;10.412;2023-12-04T14:01:06;6.70;78.10
7034;DHT22;3558;53.176;10.412;2023-12-04T14:03:40;6.70;78.00
7034;DHT22;3558;53.176;10.412;2023-12-04T14:06:05;6.70;78.10
7034;DHT22;3558;53.176;10.412;2023-12-04T14:08:31;6.70;78.10
7034;DHT22;3558;53.176;10.412;2023-12-04T14:10:56;6.70;78.00
7034;DHT22;3558;53.176;10.412;2023-12-04T14:13:22;6.70;78.00
7034;DHT22;3558;53.176;10.412;2023-12-04T14:15:48;6.70;78.10
7034;DHT22;3558;53.176;10.412;2023-12-04T14:18:14;6.70;78.00
7034;DHT22;3558;53.176;10.412;2023-12-04T14:20:39;6.70;78.00
7034;DHT22;3558;53.176;10.412;2023-12-04T14:23:05;6.70;77.90
7034;DHT22;3558;53.176;10.412;2023-12-04T14:25:30;6.70;78.00
7034;DHT22;3558;53.176;10.412;2023-12-04T14:27:56;6.70;78.00
7034;DHT22;3558;53.176;10.412;2023-12-04T14:30:21;6.70;78.00
7034;DHT22;3558;53.176;10.412;2023-12-04T14:32:46;6.80;77.90
7034;DHT22;3558;53.176;10.412;2023-12-04T14:35:13;6.70;77.90
7034;DHT22;3558;53.176;10.412;2023-12-04T14:37:39;6.80;77.90
7034;DHT22;3558;53.176;10.412;2023-12-04T14:40:05;6.70;77.80
7034;DHT22;3558;53.176;10.412;2023-12-04T14:42:31;6.70;77.90
7034;DHT22;3558;53.176;10.412;2023-12-04T14:44:56;6.70;77.90
7034;DHT22;3558;53.176;10.412;2023-12-04T14:47:22;6.70;77.90
7034;DHT22;3558;53.176;10.412;2023-12-04T14:49:47;6.70;77.90
7034;DHT22;3558;53.176;10.412;2023-12-04T14:52:18;6.70;77.90
7034;DHT22;3558;53.176;10.412;2023-12-04T14:54:45;6.70;77.90
7034;DHT22;3558;53.176;10.412;2023-12-04T14:57:20;6.70;78.00
7034;DHT22;3558;53.176;10.412;2023-12-04T15:00:09;6.70;78.00
7034;DHT22;3558;53.176;10.412;2023-12-04T15:02:38;6.70;78.00
7034;DHT22;3558;53.176;10.412;2023-12-04T15:05:22;6.70;78.00
7034;DHT22;3558;53.176;10.412;2023-12-04T15:08:06;6.70;78.00
7034;DHT22;3558;53.176;10.412;2023-12-04T15:10:50;6.70;77.90
7034;DHT22;3558;53.176;10.412;2023-12-04T15:13:25;6.70;78.00
7034;DHT22;3558;53.176;10.412;2023-12-04T15:15:56;6.70;77.90
7034;DHT22;3558;53.176;10.412;2023-12-04T15:18:28;6.70;77.90
7034;DHT22;3558;53.176;10.412;2023-12-04T15:21:03;6.70;77.90
7034;DHT22;3558;53.176;10.412;2023-12-04T15:23:29;6.70;77.90
7034;DHT22;3558;53.176;10.412;2023-12-04T15:25:55;6.70;77.90
7034;DHT22;3558;53.176;10.412;2023-12-04T15:28:21;6.70;78.40
7034;DHT22;3558;53.176;10.412;2023-12-04T15:30:46;6.70;77.80
7034;DHT22;3558;53.176;10.412;2023-12-04T15:33:12;6.70;77.80
7034;DHT22;3558;53.176;10.412;2023-12-04T15:35:38;6.70;77.90
7034;DHT22;3558;53.176;10.412;2023-12-04T15:38:04;6.70;77.90
7034;DHT22;3558;53.176;10.412;2023-12-04T15:40:29;6.70;78.00
7034;DHT22;3558;53.176;10.412;2023-12-04T15:42:55;6.70;77.90
7034;DHT22;3558;53.176;10.412;2023-12-04T15:45:21;6.70;77.90
7034;DHT22;3558;53.176;10.412;2023-12-04T15:47:47;6.70;77.90
7034;DHT22;3558;53.176;10.412;2023-12-04T15:50:13;6.70;78.00
7034;DHT22;3558;53.176;10.412;2023-12-04T15:52:39;6.70;78.00
7034;DHT22;3558;53.176;10.412;2023-12-04T15:55:07;6.70;78.10
7034;DHT22;3558;53.176;10.412;2023-12-04T15:57:36;6.70;78.10
7034;DHT22;3558;53.176;10.412;2023-12-04T16:00:01;6.70;78.20
7034;DHT22;3558;53.176;10.412;2023-12-04T16:02:27;6.70;78.10
7034;DHT22;3558;53.176;10.412;2023-12-04T16:04:52;6.70;78.00
7034;DHT22;3558;53.176;10.412;2023-12-04T16:07:18;6.70;78.10
7034;DHT22;3558;53.176;10.412;2023-12-04T16:09:43;6.70;78.20
7034;DHT22;3558;53.176;10.412;2023-12-04T16:12:09;6.70;78.10
7034;DHT22;3558;53.176;10.412;2023-12-04T16:14:34;6.70;78.20
7034;DHT22;3558;53.176;10.412;2023-12-04T16:17:00;6.70;78.10
7034;DHT22;3558;53.176;10.412;2023-12-04T16:19:25;6.70;78.00
7034;DHT22;3558;53.176;10.412;2023-12-04T16:21:51;6.70;78.10
7034;DHT22;3558;53.176;10.412;2023-12-04T16:24:16;6.70;78.20
7034;DHT22;3558;53.176;10.412;2023-12-04T16:26:45;6.70;78.30
7034;DHT22;3558;53.176;10.412;2023-12-04T16:29:11;6.70;78.30
7034;DHT22;3558;53.176;10.412;2023-12-04T16:31:37;6.70;78.20
7034;DHT22;3558;53.176;10.412;2023-12-04T16:34:05;6.70;78.30
7034;DHT22;3558;53.176;10.412;2023-12-04T16:36:30;6.70;78.30
7034;DHT22;3558;53.176;10.412;2023-12-04T16:38:56;6.70;78.20
7034;DHT22;3558;53.176;10.412;2023-12-04T16:41:22;6.70;78.30
7034;DHT22;3558;53.176;10.412;2023-12-04T16:43:47;6.70;78.80
7034;DHT22;3558;53.176;10.412;2023-12-04T16:46:13;6.70;78.20
7034;DHT22;3558;53.176;10.412;2023-12-04T16:48:38;6.70;78.20
7034;DHT22;3558;53.176;10.412;2023-12-04T16:51:04;6.70;78.30
7034;DHT22;3558;53.176;10.412;2023-12-04T16:53:30;6.70;78.20
7034;DHT22;3558;53.176;10.412;2023-12-04T16:55:58;6.70;78.30
7034;DHT22;3558;53.176;10.412;2023-12-04T16:58:24;6.70;78.30
7034;DHT22;3558;53.176;10.412;2023-12-04T17:00:50;6.70;78.20
7034;DHT22;3558;53.176;10.412;2023-12-04T17:03:15;6.70;78.20
7034;DHT22;3558;53.176;10.412;2023-12-04T17:05:41;6.70;78.20
7034;DHT22;3558;53.176;10.412;2023-12-04T17:08:06;6.70;78.30
7034;DHT22;3558;53.176;10.412;2023-12-04T17:10:31;6.70;78.20
7034;DHT22;3558;53.176;10.412;2023-12-04T17:12:57;6.70;78.10
7034;DHT22;3558;53.176;10.412;2023-12-04T17:15:23;6.70;78.20
7034;DHT22;3558;53.176;10.412;2023-12-04T17:17:48;6.70;78.80
7034;DHT22;3558;53.176;10.412;2023-12-04T17:20:14;6.70;78.20
7034;DHT22;3558;53.176;10.412;2023-12-04T17:22:39;6.70;78.30
7034;DHT22;3558;53.176;10.412;2023-12-04T17:25:06;6.70;78.20
7034;DHT22;3558;53.176;10.412;2023-12-04T17:27:32;6.70;78.20
7034;DHT22;3558;53.176;10.412;2023-12-04T17:29:58;6.70;78.20
7034;DHT22;3558;53.176;10.412;2023-12-04T17:32:24;6.70;78.20
7034;DHT22;3558;53.176;10.412;2023-12-04T17:34:49;6.70;78.20
7034;DHT22;3558;53.176;10.412;2023-12-04T17:37:15;6.70;78.20
7034;DHT22;3558;53.176;10.412;2023-12-04T17:39:40;6.70;78.10
7034;DHT22;3558;53.176;10.412;2023-12-04T17:42:08;6.70;78.20
7034;DHT22;3558;53.176;10.412;2023-12-04T17:44:33;6.70;78.10
7034;DHT22;3558;53.176;10.412;2023-12-04T17:46:59;6.70;78.10
7034;DHT22;3558;53.176;10.412;2023-12-04T17:49:24;6.70;78.20
7034;DHT22;3558;53.176;10.412;2023-12-04T17:51:50;6.70;78.20
7034;DHT22;3558;53.176;10.412;2023-12-04T17:54:15;6.70;78.20
7034;DHT22;3558;53.176;10.412;2023-12-04T17:56:41;6.70;78.10
7034;DHT22;3558;53.176;10.412;2023-12-04T17:59:06;6.70;78.10
7034;DHT22;3558;53.176;10.412;2023-12-04T18:01:31;6.70;77.90
7034;DHT22;3558;53.176;10.412;2023-12-04T18:03:57;6.70;77.90
7034;DHT22;3558;53.176;10.412;2023-12-04T18:06:29;6.70;77.90
7034;DHT22;3558;53.176;10.412;2023-12-04T18:08:56;6.80;77.80
7034;DHT22;3558;53.176;10.412;2023-12-04T18:11:22;6.70;77.80
7034;DHT22;3558;53.176;10.412;2023-12-04T18:13:47;6.70;77.80
7034;DHT22;3558;53.176;10.412;2023-12-04T18:16:14;6.70;77.90
7034;DHT22;3558;53.176;10.412;2023-12-04T18:18:39;6.70;77.80
7034;DHT22;3558;53.176;10.412;2023-12-04T18:21:05;6.70;77.70
7034;DHT22;3558;53.176;10.412;2023-12-04T18:23:32;6.70;77.60
7034;DHT22;3558;53.176;10.412;2023-12-04T18:25:58;6.70;77.70
7034;DHT22;3558;53.176;10.412;2023-12-04T18:28:25;6.70;77.90
7034;DHT22;3558;53.176;10.412;2023-12-04T18:30:51;6.70;77.90
7034;DHT22;3558;53.176;10.412;2023-12-04T18:33:17;6.70;77.70
7034;DHT22;3558;53.176;10.412;2023-12-04T18:35:43;6.70;77.70
7034;DHT22;3558;53.176;10.412;2023-12-04T18:38:13;6.70;77.70
7034;DHT22;3558;53.176;10.412;2023-12-04T18:40:40;6.70;77.60
7034;DHT22;3558;53.176;10.412;2023-12-04T18:43:06;6.70;77.50
7034;DHT22;3558;53.176;10.412;2023-12-04T18:45:31;6.70;77.60
7034;DHT22;3558;53.176;10.412;2023-12-04T18:48:03;6.70;77.70
7034;DHT22;3558;53.176;10.412;2023-12-04T18:50:31;6.70;77.50
7034;DHT22;3558;53.176;10.412;2023-12-04T18:53:00;6.80;77.60
7034;DHT22;3558;53.176;10.412;2023-12-04T18:55:26;6.70;77.60
7034;DHT22;3558;53.176;10.412;2023-12-04T18:57:52;6.70;77.60
7034;DHT22;3558;53.176;10.412;2023-12-04T19:00:18;6.70;77.50
7034;DHT22;3558;53.176;10.412;2023-12-04T19:02:44;6.70;77.20
7034;DHT22;3558;53.176;10.412;2023-12-04T19:05:09;6.70;77.40
7034;DHT22;3558;53.176;10.412;2023-12-04T19:07:35;6.70;77.50
7034;DHT22;3558;53.176;10.412;2023-12-04T19:10:00;6.80;77.50
7034;DHT22;3558;53.176;10.412;2023-12-04T19:12:26;6.80;77.60
7034;DHT22;3558;53.176;10.412;2023-12-04T19:14:52;6.80;77.50
7034;DHT22;3558;53.176;10.412;2023-12-04T19:17:17;6.70;77.40
7034;DHT22;3558;53.176;10.412;2023-12-04T19:19:43;6.70;77.50
7034;DHT22;3558;53.176;10.412;2023-12-04T19:22:08;6.70;77.30
7034;DHT22;3558;53.176;10.412;2023-12-04T19:24:34;6.70;77.30
7034;DHT22;3558;53.176;10.412;2023-12-04T19:26:59;6.70;77.20
7034;DHT22;3558;53.176;10.412;2023-12-04T19:29:24;6.70;77.20
7034;DHT22;3558;53.176;10.412;2023-12-04T19:31:50;6.70;77.20
7034;DHT22;3558;53.176;10.412;2023-12-04T19:34:15;6.70;77.20
7034;DHT22;3558;53.176;10.412;2023-12-04T19:36:43;6.70;77.20
7034;DHT22;3558;53.176;10.412;2023-12-04T19:39:08;6.70;77.20
7034;DHT22;3558;53.176;10.412;2023-12-04T19:41:34;6.70;77.10
7034;DHT22;3558;53.176;10.412;2023-12-04T19:43:59;6.70;77.00
7034;DHT22;3558;53.176;10.412;2023-12-04T19:46:25;6.70;77.10